Time;durP1;ratioP1;P1;durP2;ratioP2;P2;SDS_P1;SDS_P2;PMS_P1;PMS_P2;Temp;Humidity;BMP_temperature;BMP_pressure;BME280_temperature;BME280_humidity;BME280_pressure;Samples;Min_cycle;Max_cycle;Signal;HPM_P1;HPM_P2
2022/11/18 00:02:06;;;;;;;8.60;5.95;;;;;;;-5.11;76.20;98862.72;5017443;28;20187;-66
2022/11/18 00:04:32;;;;;;;7.10;5.35;;;;;;;-5.09;75.73;98866.16;4985605;28;20310;-65
2022/11/18 00:06:57;;;;;;;10.88;5.55;;;;;;;-5.11;76.52;98865.25;4985366;28;20027;-66
2022/11/18 00:09:23;;;;;;;7.75;5.57;;;;;;;-5.12;76.55;98867.75;4985786;28;20026;-66
2022/11/18 00:14:33;;;;;;;8.20;5.78;;;;;;;-5.13;78.57;98873.59;4966387;28;20030;-65
2022/11/18 00:17:01;;;;;;;7.32;5.38;;;;;;;-5.23;76.12;98862.38;4982012;28;20023;-65
2022/11/18 00:19:35;;;;;;;8.18;5.55;;;;;;;-5.24;77.15;98843.88;4996524;28;20030;-65
2022/11/18 00:22:02;;;;;;;6.95;5.20;;;;;;;-5.07;77.72;98851.06;4996948;28;20361;-65
2022/11/18 00:24:28;;;;;;;7.28;5.13;;;;;;;-5.25;76.62;98856.44;4999045;28;20315;-64
2022/11/18 00:26:54;;;;;;;6.95;5.97;;;;;;;-5.32;78.66;98855.41;4985242;28;20137;-64
2022/11/18 00:29:21;;;;;;;8.02;5.50;;;;;;;-5.27;77.11;98858.94;4984544;28;20053;-64
2022/11/18 00:31:47;;;;;;;7.13;5.30;;;;;;;-5.05;78.25;98841.84;4984897;28;20105;-64
2022/11/18 00:34:15;;;;;;;9.27;5.93;;;;;;;-5.29;78.20;98834.47;4984856;28;20286;-64
2022/11/18 00:36:42;;;;;;;6.45;5.05;;;;;;;-5.37;76.67;98847.72;4990326;28;20053;-64
2022/11/18 00:39:10;;;;;;;7.88;5.50;;;;;;;-5.30;78.17;98868.94;5003516;28;20050;-64
2022/11/18 00:44:19;;;;;;;7.82;5.72;;;;;;;-5.16;77.95;98854.16;4984885;28;20034;-64
2022/11/18 00:46:45;;;;;;;7.65;5.88;;;;;;;-5.15;78.39;98838.22;4984739;28;20323;-63
2022/11/18 00:49:11;;;;;;;6.50;5.13;;;;;;;-5.10;76.42;98829.13;4985020;28;20046;-63
2022/11/18 00:51:36;;;;;;;6.78;5.38;;;;;;;-5.30;76.75;98832.75;4984634;28;20054;-63
2022/11/18 00:54:02;;;;;;;8.85;5.38;;;;;;;-5.15;78.38;98828.13;4984631;28;20255;-63
2022/11/18 00:56:28;;;;;;;6.63;5.22;;;;;;;-5.16;76.01;98826.41;4965341;28;20035;-63
2022/11/18 00:58:53;;;;;;;7.32;5.57;;;;;;;-4.99;77.27;98824.34;4980091;28;20275;-63
2022/11/18 01:01:19;;;;;;;6.20;4.30;;;;;;;-5.25;76.18;98821.13;4984726;28;20031;-63
2022/11/18 01:03:45;;;;;;;9.18;5.28;;;;;;;-5.08;76.12;98819.06;4984307;28;20247;-64
2022/11/18 01:06:11;;;;;;;7.65;5.25;;;;;;;-5.14;78.09;98822.28;4985287;28;20311;-63
2022/11/18 01:08:36;;;;;;;7.05;5.30;;;;;;;-5.31;76.85;98826.00;4997680;28;20089;-63
2022/11/18 01:13:53;;;;;;;7.43;4.90;;;;;;;-5.44;78.33;98820.59;4984096;28;20030;-63
2022/11/18 01:16:21;;;;;;;5.90;5.07;;;;;;;-5.36;77.41;98798.09;4984123;28;20329;-63
2022/11/18 01:18:46;;;;;;;7.03;5.35;;;;;;;-5.13;76.65;98810.50;4984279;28;20050;-64
2022/11/18 01:21:12;;;;;;;8.50;5.20;;;;;;;-5.29;77.55;98805.03;4984328;28;20042;-64
2022/11/18 01:23:38;;;;;;;7.25;5.35;;;;;;;-5.30;77.70;98813.44;4986208;28;20026;-64
2022/11/18 01:26:07;;;;;;;6.60;5.40;;;;;;;-5.28;76.92;98811.78;4986483;28;20038;-64
2022/11/18 01:28:33;;;;;;;8.68;4.90;;;;;;;-5.12;78.18;98807.16;4983897;28;20048;-64
2022/11/18 01:31:06;;;;;;;7.35;4.97;;;;;;;-5.10;77.91;98803.00;4983910;28;20034;-64
2022/11/18 01:33:32;;;;;;;5.93;4.82;;;;;;;-5.21;76.34;98802.72;4987372;28;20034;-65
2022/11/18 01:35:58;;;;;;;5.55;4.72;;;;;;;-5.28;77.36;98805.91;5003662;28;20259;-64
2022/11/18 01:38:24;;;;;;;7.28;5.43;;;;;;;-5.26;77.02;98806.78;4984941;28;20059;-65
2022/11/18 01:40:50;;;;;;;6.03;5.22;;;;;;;-5.25;77.25;98805.97;4984048;28;20042;-65
2022/11/18 01:43:18;;;;;;;4.97;4.47;;;;;;;-5.42;76.31;98810.56;4993409;28;20138;-65
2022/11/18 01:45:46;;;;;;;7.18;4.70;;;;;;;-5.21;76.84;98805.25;4998209;28;20038;-65
2022/11/18 01:48:19;;;;;;;11.30;5.65;;;;;;;-5.17;75.38;98798.59;4983840;28;20035;-65
2022/11/18 01:50:59;;;;;;;5.85;5.25;;;;;;;-5.10;75.51;98808.06;4984076;28;20050;-66
2022/11/18 01:53:30;;;;;;;7.72;5.07;;;;;;;-5.20;75.87;98790.16;4983797;28;20055;-65
2022/11/18 01:55:58;;;;;;;5.70;5.03;;;;;;;-5.08;76.25;98794.66;4983973;28;20030;-65
2022/11/18 01:58:29;;;;;;;7.93;4.93;;;;;;;-5.47;75.70;98782.69;4993884;28;20032;-65
2022/11/18 02:00:55;;;;;;;6.88;5.05;;;;;;;-5.25;77.40;98795.88;5002034;28;20034;-65
2022/11/18 02:03:22;;;;;;;5.88;4.63;;;;;;;-5.35;77.35;98799.81;5000365;28;20057;-65
2022/11/18 02:05:51;;;;;;;5.57;4.50;;;;;;;-5.38;76.42;98793.03;4982557;28;20086;-65
2022/11/18 02:08:18;;;;;;;5.85;5.25;;;;;;;-5.27;75.98;98795.84;4983449;28;20039;-66
2022/11/18 02:10:44;;;;;;;5.28;4.72;;;;;;;-5.22;76.53;98788.41;4983678;28;20046;-64
2022/11/18 02:13:10;;;;;;;6.72;4.60;;;;;;;-5.29;77.17;98799.13;4983662;28;20077;-65
2022/11/18 02:16:07;;;;;;;5.93;5.10;;;;;;;-5.22;77.15;98794.28;5010258;28;20073;-64
2022/11/18 02:18:35;;;;;;;6.05;4.65;;;;;;;-5.25;75.97;98795.88;4986729;28;20141;-64
2022/11/18 02:21:13;;;;;;;6.50;5.30;;;;;;;-5.16;76.81;98783.50;5000105;28;20023;-65
2022/11/18 02:23:45;;;;;;;7.07;5.05;;;;;;;-5.07;75.29;98787.97;4985224;28;20073;-64
2022/11/18 02:26:13;;;;;;;;;;;;;;;-5.13;76.26;98786.13;4987011;28;20093;-65
2022/11/18 02:28:57;;;;;;;5.65;4.85;;;;;;;-5.13;76.61;98790.31;4983589;28;19910;-64
2022/11/18 02:31:31;;;;;;;7.40;5.43;;;;;;;-5.16;75.15;98782.66;4993684;28;20027;-64
2022/11/18 02:34:31;;;;;;;6.07;4.50;;;;;;;-5.20;77.08;98782.59;4996509;28;20023;-64
2022/11/18 02:37:05;;;;;;;5.20;4.55;;;;;;;-5.16;75.66;98775.09;4983498;28;20342;-64
2022/11/18 02:39:35;;;;;;;5.72;4.90;;;;;;;-5.21;76.27;98747.22;4983433;28;20327;-64
2022/11/18 02:42:08;;;;;;;11.02;4.97;;;;;;;-5.28;77.26;98788.25;4983813;28;20030;-64
2022/11/18 02:44:37;;;;;;;6.35;5.13;;;;;;;-5.13;78.46;98765.94;4983507;28;20054;-64
2022/11/18 02:47:07;;;;;;;5.97;4.50;;;;;;;-5.61;77.94;98754.56;4983595;28;20050;-64
2022/11/18 02:49:54;;;;;;;9.25;4.75;;;;;;;-5.35;76.68;98777.13;4982220;28;20239;-63
2022/11/18 02:52:21;;;;;;;5.75;4.70;;;;;;;-5.21;77.42;98782.53;4983749;28;20055;-65
2022/11/18 02:54:49;;;;;;;5.13;4.55;;;;;;;-5.10;77.15;98773.59;4986587;28;20121;-65
2022/11/18 02:57:15;;;;;;;6.00;4.38;;;;;;;-5.04;76.13;98772.91;4986905;28;20153;-65
2022/11/18 02:59:41;;;;;;;6.95;4.75;;;;;;;-4.94;77.54;98781.56;4986851;28;20034;-66
2022/11/18 03:02:14;;;;;;;6.03;4.80;;;;;;;-5.21;76.79;98767.41;4986994;28;20211;-64
2022/11/18 03:04:39;;;;;;;6.60;4.55;;;;;;;-5.07;76.84;98772.81;4986977;28;20080;-66
2022/11/18 03:07:17;;;;;;;9.52;4.90;;;;;;;-4.98;77.37;98774.72;4986579;28;20030;-66
2022/11/18 03:09:46;;;;;;;8.35;5.20;;;;;;;-5.17;76.70;98743.09;4971649;28;20279;-67
2022/11/18 03:12:39;;;;;;;6.88;4.55;;;;;;;-4.92;76.91;98763.09;4967337;28;20059;-65
2022/11/18 03:15:22;;;;;;;7.35;5.13;;;;;;;-5.01;77.41;98767.91;4967363;28;20038;-64
2022/11/18 03:17:47;;;;;;;6.93;4.50;;;;;;;-5.06;76.74;98762.75;4974133;28;20038;-65
2022/11/18 03:20:30;;;;;;;6.03;4.88;;;;;;;-4.89;76.79;98762.31;4986428;28;20037;-65
2022/11/18 03:23:21;;;;;;;6.93;4.90;;;;;;;-4.93;76.36;98763.94;4991635;28;20262;-65
2022/11/18 03:25:52;;;;;;;6.65;4.22;;;;;;;-5.15;76.37;98751.56;4993362;28;20030;-65
2022/11/18 03:28:22;;;;;;;6.43;4.90;;;;;;;-5.00;76.52;98743.53;4986379;28;20165;-65
2022/11/18 03:30:57;;;;;;;5.32;4.40;;;;;;;-5.04;77.48;98756.06;4986241;28;20113;-64
2022/11/18 03:33:26;;;;;;;5.35;4.57;;;;;;;-5.06;77.68;98755.19;4986448;28;20027;-64
2022/11/18 03:35:53;;;;;;;5.68;4.68;;;;;;;-4.96;76.96;98742.78;4986207;28;20086;-64
2022/11/18 03:38:30;;;;;;;7.20;4.80;;;;;;;-5.25;77.31;98735.31;4985653;28;20279;-65
2022/11/18 03:41:00;;;;;;;7.13;5.18;;;;;;;-5.19;77.36;98740.53;4986045;28;20027;-65
2022/11/18 03:43:31;;;;;;;7.78;5.50;;;;;;;-5.23;77.26;98728.63;4984838;28;20026;-64
2022/11/18 03:46:15;;;;;;;4.95;4.45;;;;;;;-5.17;77.82;98728.81;4986032;28;20464;-64
2022/11/18 03:48:47;;;;;;;6.95;4.90;;;;;;;-5.39;77.55;98715.66;4985854;28;20049;-65
2022/11/18 03:51:17;;;;;;;6.70;4.47;;;;;;;-5.07;78.26;98733.28;4986188;28;20050;-66
2022/11/18 03:53:51;;;;;;;6.65;5.28;;;;;;;-5.16;76.09;98729.66;4966627;28;20045;-67
2022/11/18 03:56:21;;;;;;;5.68;5.00;;;;;;;-5.16;76.80;98749.84;4982358;28;20098;-66
2022/11/18 03:59:06;;;;;;;7.00;4.60;;;;;;;-5.00;77.18;98741.00;4985622;28;20030;-66
2022/11/18 04:01:48;;;;;;;5.53;4.75;;;;;;;-5.21;76.34;98753.09;4985833;28;20038;-64
2022/11/18 04:04:14;;;;;;;5.18;4.65;;;;;;;-5.08;77.36;98754.28;4984811;28;20039;-64
2022/11/18 04:07:13;;;;;;;6.68;4.53;;;;;;;-4.97;77.43;98747.00;4985185;28;20027;-64
2022/11/18 04:09:51;;;;;;;4.65;4.13;;;;;;;-5.25;76.79;98731.13;4985234;28;20033;-64
2022/11/18 04:12:20;;;;;;;5.25;4.30;;;;;;;-4.94;75.77;98741.16;4985593;28;20097;-64
2022/11/18 04:14:51;;;;;;;5.72;4.50;;;;;;;-4.95;75.95;98741.97;4985157;28;20082;-64
2022/11/18 04:17:19;;;;;;;5.75;3.92;;;;;;;-5.04;76.76;98732.50;5001611;28;20037;-64
2022/11/18 04:19:45;;;;;;;6.97;4.90;;;;;;;-5.17;75.92;98692.63;5004517;28;20053;-63
2022/11/18 04:22:11;;;;;;;4.60;4.03;;;;;;;-4.91;75.21;98746.28;4997426;28;20035;-63
2022/11/18 04:24:37;;;;;;;6.53;4.68;;;;;;;-5.12;76.46;98747.44;5000716;28;20319;-64
2022/11/18 04:27:04;;;;;;;5.28;3.95;;;;;;;-5.18;76.64;98744.75;4985260;28;20041;-63
2022/11/18 04:29:31;;;;;;;6.82;5.82;;;;;;;-5.16;76.98;98740.59;4985161;28;20035;-63
2022/11/18 04:31:57;;;;;;;6.75;4.40;;;;;;;-5.08;76.55;98753.44;4985147;28;20035;-64
2022/11/18 04:34:22;;;;;;;6.45;4.38;;;;;;;-5.00;76.69;98746.03;4985007;28;20030;-63
2022/11/18 04:36:48;;;;;;;7.10;4.95;;;;;;;-4.94;75.86;98758.84;4984736;28;20027;-64
2022/11/18 04:39:14;;;;;;;6.38;4.35;;;;;;;-5.07;76.96;98745.06;4984626;28;20248;-65
2022/11/18 04:41:54;;;;;;;6.05;4.35;;;;;;;-5.03;75.77;98730.03;4984637;28;20037;-63
2022/11/18 04:44:25;;;;;;;6.47;4.70;;;;;;;-5.12;76.28;98722.19;4984901;28;20054;-65
2022/11/18 04:46:51;;;;;;;5.67;4.73;;;;;;;-5.02;76.54;98748.53;4983965;28;20023;-65
2022/11/18 04:49:17;;;;;;;6.68;4.82;;;;;;;-4.92;76.97;98744.56;4984829;28;20037;-63
2022/11/18 04:51:44;;;;;;;5.65;4.28;;;;;;;-4.89;76.87;98735.41;4984791;28;20039;-64
2022/11/18 04:54:10;;;;;;;5.78;4.50;;;;;;;-4.78;75.47;98738.19;4984632;28;20203;-64
2022/11/18 04:56:37;;;;;;;6.60;4.53;;;;;;;-4.86;76.07;98740.53;4984659;28;20030;-63
2022/11/18 04:59:04;;;;;;;5.47;4.55;;;;;;;-4.87;76.66;98743.03;4984766;28;20023;-62
2022/11/18 05:01:30;;;;;;;5.88;5.20;;;;;;;-5.05;75.69;98741.72;4984419;28;20091;-63
2022/11/18 05:03:56;;;;;;;6.30;4.80;;;;;;;-5.13;75.25;98743.22;4984430;28;20042;-63
2022/11/18 05:06:22;;;;;;;5.70;4.53;;;;;;;-5.01;75.81;98746.88;4984211;28;20093;-64
2022/11/18 05:08:48;;;;;;;6.60;4.43;;;;;;;-5.04;76.21;98740.91;4982914;28;20275;-63
2022/11/18 05:13:58;;;;;;;4.93;4.20;;;;;;;-4.87;75.54;98748.09;4984098;28;20081;-64
2022/11/18 05:16:23;;;;;;;6.32;4.47;;;;;;;-4.86;74.75;98738.00;4984105;28;20034;-64
2022/11/18 05:18:49;;;;;;;4.95;4.22;;;;;;;-4.90;75.95;98753.06;4984719;28;20069;-64
2022/11/18 05:21:16;;;;;;;4.75;4.25;;;;;;;-4.95;76.22;98734.41;4984338;28;20203;-63
2022/11/18 05:23:42;;;;;;;4.80;4.20;;;;;;;-5.00;75.85;98741.00;4994898;28;20030;-62
2022/11/18 05:26:09;;;;;;;6.07;4.70;;;;;;;-4.89;75.21;98742.13;4989332;28;20091;-63
2022/11/18 05:28:34;;;;;;;5.63;4.80;;;;;;;-4.96;75.43;98732.69;4984001;28;20186;-64
2022/11/18 05:31:06;;;;;;;6.00;4.75;;;;;;;-4.98;75.41;98755.38;4984010;28;20256;-64
2022/11/18 05:33:32;;;;;;;7.07;4.63;;;;;;;-4.97;75.10;98753.69;4982917;28;20030;-63
2022/11/18 05:36:05;;;;;;;5.78;4.45;;;;;;;-4.88;76.69;98736.25;4984099;28;20346;-62
2022/11/18 05:38:32;;;;;;;5.47;4.20;;;;;;;-4.85;76.67;98746.44;4983976;28;20069;-63
2022/11/18 05:40:58;;;;;;;4.60;4.10;;;;;;;-4.79;75.57;98748.25;4984174;28;20030;-62
2022/11/18 05:43:24;;;;;;;4.82;3.90;;;;;;;-4.96;75.54;98748.72;4983978;28;20234;-63
2022/11/18 05:45:51;;;;;;;4.63;4.13;;;;;;;-4.93;77.36;98745.38;4983997;28;20070;-62
2022/11/18 05:48:17;;;;;;;6.32;4.38;;;;;;;-4.96;75.49;98758.81;4984153;28;20037;-62
2022/11/18 05:50:46;;;;;;;6.97;4.68;;;;;;;-5.09;77.18;98744.16;5002211;28;20088;-62
2022/11/18 05:53:13;;;;;;;5.53;4.65;;;;;;;-4.92;77.16;98749.63;4988631;28;20054;-62
2022/11/18 05:55:54;;;;;;;5.97;5.13;;;;;;;-4.86;77.23;98764.91;4983520;28;20390;-62
2022/11/18 05:58:19;;;;;;;5.10;4.50;;;;;;;-4.94;77.80;98754.63;4983646;28;20386;-63
2022/11/18 06:00:46;;;;;;;6.47;4.50;;;;;;;-4.92;76.24;98742.06;4982600;28;20057;-63
2022/11/18 06:03:20;;;;;;;6.50;4.68;;;;;;;-4.92;76.42;98750.47;4982663;28;20030;-63
2022/11/18 06:05:46;;;;;;;5.57;4.70;;;;;;;-4.89;77.84;98759.78;4983029;28;20118;-62
2022/11/18 06:08:14;;;;;;;5.15;4.28;;;;;;;-4.72;76.66;98755.16;4980921;28;20047;-62
2022/11/18 06:10:43;;;;;;;6.82;4.40;;;;;;;-5.00;76.53;98735.94;4964223;28;20039;-62
2022/11/18 06:13:15;;;;;;;6.55;4.25;;;;;;;-4.87;77.14;98740.50;4970374;28;20079;-62
2022/11/18 06:15:42;;;;;;;;;;;;;;;-4.90;75.57;98765.69;4984550;28;20041;-63
2022/11/18 06:18:23;;;;;;;5.30;4.65;;;;;;;-4.72;77.94;98748.47;4983825;28;19929;-63
2022/11/18 06:20:51;;;;;;;5.38;4.53;;;;;;;-4.88;77.16;98746.38;4988305;28;20089;-63
2022/11/18 06:23:17;;;;;;;6.70;5.13;;;;;;;-4.72;75.97;98748.47;5020686;28;20368;-63
2022/11/18 06:25:43;;;;;;;5.00;4.40;;;;;;;-4.90;76.18;98750.53;4982987;28;20023;-63
2022/11/18 06:28:12;;;;;;;5.50;4.38;;;;;;;-4.85;76.36;98741.38;4984705;28;20083;-62
2022/11/18 06:30:38;;;;;;;5.10;4.53;;;;;;;-4.62;76.53;98758.78;4987136;28;20034;-62
2022/11/18 06:33:04;;;;;;;6.57;5.05;;;;;;;-4.66;77.56;98746.88;4992085;28;20098;-63
2022/11/18 06:35:29;;;;;;;5.60;4.53;;;;;;;-4.68;75.83;98752.75;4995475;28;20030;-62
2022/11/18 06:37:55;;;;;;;5.32;4.57;;;;;;;-4.62;75.68;98752.03;4997800;28;20065;-63
2022/11/18 06:40:20;;;;;;;6.30;4.60;;;;;;;-4.79;77.21;98756.69;4995967;28;20187;-62
2022/11/18 06:45:30;;;;;;;6.13;4.65;;;;;;;-4.75;77.08;98748.38;4994267;28;20085;-61
2022/11/18 06:47:57;;;;;;;6.63;4.68;;;;;;;-4.62;78.15;98748.66;4997147;28;20038;-64
2022/11/18 06:50:23;;;;;;;7.63;4.78;;;;;;;-4.42;78.01;98749.13;4996964;28;20026;-62
2022/11/18 06:52:48;;;;;;;6.35;5.22;;;;;;;-4.63;76.12;98745.31;4996841;28;20069;-62
2022/11/18 06:55:14;;;;;;;7.70;5.03;;;;;;;-4.56;78.33;98747.16;4997575;28;20346;-62
2022/11/18 06:57:39;;;;;;;6.68;5.05;;;;;;;-4.77;77.22;98739.91;4996274;28;20087;-63
2022/11/18 07:00:06;;;;;;;5.80;4.55;;;;;;;-4.53;77.81;98748.91;4995840;28;20041;-63
2022/11/18 07:02:31;;;;;;;7.13;5.07;;;;;;;-4.70;77.10;98751.03;4989088;28;20216;-63
2022/11/18 07:04:57;;;;;;;6.63;4.38;;;;;;;-4.60;77.03;98747.03;4986821;28;20062;-63
2022/11/18 07:07:22;;;;;;;7.63;4.65;;;;;;;-4.76;77.43;98745.81;4986357;28;20031;-63
2022/11/18 07:09:48;;;;;;;6.72;5.15;;;;;;;-4.76;76.97;98741.63;4986272;28;20054;-62
2022/11/18 07:12:13;;;;;;;5.97;4.88;;;;;;;-4.46;77.13;98743.16;4994306;28;20026;-63
2022/11/18 07:14:39;;;;;;;5.88;4.40;;;;;;;-4.61;75.93;98741.13;4994885;28;20023;-63
2022/11/18 07:17:05;;;;;;;5.78;4.28;;;;;;;-4.84;77.83;98733.00;4997071;28;20350;-62
2022/11/18 07:19:30;;;;;;;6.70;4.78;;;;;;;-4.79;77.52;98750.78;4994248;28;20030;-63
2022/11/18 07:21:58;;;;;;;5.97;4.60;;;;;;;-4.51;77.32;98753.16;4993221;28;20116;-63
2022/11/18 07:24:23;;;;;;;6.10;4.97;;;;;;;-4.48;77.51;98747.31;4991548;28;20041;-64
2022/11/18 07:26:50;;;;;;;7.25;4.97;;;;;;;-4.42;76.86;98752.50;4995279;28;20030;-64
2022/11/18 07:29:15;;;;;;;6.20;4.78;;;;;;;-4.45;77.26;98752.44;4999969;28;20018;-65
2022/11/18 07:31:41;;;;;;;8.30;4.80;;;;;;;-4.46;75.78;98744.81;4995366;28;20070;-63
2022/11/18 07:34:07;;;;;;;5.65;4.68;;;;;;;-4.37;77.08;98740.84;4985024;28;20027;-64
2022/11/18 07:36:33;;;;;;;5.55;4.57;;;;;;;-4.41;77.07;98744.13;4990839;28;20030;-64
2022/11/18 07:38:59;;;;;;;5.47;4.38;;;;;;;-4.17;77.49;98755.59;4993574;28;20041;-64
2022/11/18 07:41:27;;;;;;;6.97;4.60;;;;;;;-4.36;77.05;98737.50;4992481;28;20054;-65
2022/11/18 07:43:54;;;;;;;6.32;4.65;;;;;;;-4.18;74.67;98751.38;4990081;28;20197;-64
2022/11/18 07:46:23;;;;;;;6.97;4.70;;;;;;;-4.36;76.60;98737.50;4985917;28;20027;-66
2022/11/18 07:48:52;;;;;;;5.18;4.43;;;;;;;-4.22;75.81;98732.75;4986136;28;20101;-65
2022/11/18 07:51:21;;;;;;;5.63;4.70;;;;;;;-4.47;75.52;98738.94;4985106;28;20453;-64
2022/11/18 07:53:47;;;;;;;5.47;4.35;;;;;;;-4.36;76.33;98756.84;4985650;28;20303;-64
2022/11/18 07:56:13;;;;;;;6.15;4.60;;;;;;;-4.16;75.09;98758.16;4985736;28;20084;-65
2022/11/18 07:58:40;;;;;;;5.80;4.43;;;;;;;-4.30;75.69;98763.72;4989697;28;20073;-64
2022/11/18 08:01:17;;;;;;;5.82;4.25;;;;;;;-4.48;75.65;98741.41;4995178;28;20037;-64
2022/11/18 08:03:44;;;;;;;7.00;4.70;;;;;;;-4.31;75.85;98764.56;4992153;28;20031;-65
2022/11/18 08:06:11;;;;;;;7.07;4.55;;;;;;;-4.18;74.94;98771.59;4995148;28;20081;-64
2022/11/18 08:08:37;;;;;;;5.68;4.40;;;;;;;-4.32;75.29;98757.78;4994930;28;20026;-65
2022/11/18 08:11:05;;;;;;;6.13;4.82;;;;;;;-4.18;75.60;98746.31;4995863;28;20076;-64
2022/11/18 08:13:31;;;;;;;5.65;4.90;;;;;;;-4.19;75.73;98769.88;4995000;28;20325;-64
2022/11/18 08:15:58;;;;;;;6.43;4.80;;;;;;;-4.09;74.06;98769.28;4995714;28;20031;-65
2022/11/18 08:18:24;;;;;;;5.25;4.32;;;;;;;-3.99;74.11;98771.19;4991474;28;20042;-65
2022/11/18 08:20:50;;;;;;;5.95;4.28;;;;;;;-4.06;74.72;98776.06;4995779;28;20188;-65
2022/11/18 08:23:17;;;;;;;4.60;3.95;;;;;;;-4.31;75.30;98777.19;4991703;28;20030;-66
2022/11/18 08:25:44;;;;;;;5.53;4.20;;;;;;;-4.19;74.24;98769.88;4995692;28;20061;-65
2022/11/18 08:28:10;;;;;;;5.53;4.00;;;;;;;-4.11;74.03;98783.53;4995061;28;20074;-65
2022/11/18 08:30:36;;;;;;;7.32;4.65;;;;;;;-3.85;75.11;98774.03;4994704;28;20031;-66
2022/11/18 08:33:02;;;;;;;7.07;4.40;;;;;;;-3.79;74.83;98773.28;4995804;28;20060;-64
2022/11/18 08:35:29;;;;;;;6.10;4.40;;;;;;;-4.07;74.94;98769.31;4994900;28;20022;-64
2022/11/18 08:37:55;;;;;;;5.85;4.38;;;;;;;-3.92;74.64;98767.13;4994988;28;20045;-65
2022/11/18 08:40:21;;;;;;;4.85;4.25;;;;;;;-3.87;73.88;98768.06;4995588;28;20054;-64
2022/11/18 08:42:46;;;;;;;5.13;4.43;;;;;;;-3.99;74.56;98772.84;4995668;28;20026;-65
2022/11/18 08:45:12;;;;;;;5.50;4.47;;;;;;;-4.04;75.24;98769.38;4993957;28;20077;-65
2022/11/18 08:47:38;;;;;;;5.90;4.68;;;;;;;-3.72;75.42;98769.19;4991484;28;20109;-65
2022/11/18 08:50:05;;;;;;;6.07;5.18;;;;;;;-3.78;73.80;98779.19;4992263;28;20101;-65
2022/11/18 08:52:31;;;;;;;6.68;4.47;;;;;;;-3.75;75.23;98772.50;4996682;28;20049;-64
2022/11/18 08:54:56;;;;;;;4.63;3.95;;;;;;;-3.81;74.24;98772.41;4995768;28;20097;-65
2022/11/18 08:57:22;;;;;;;6.90;4.57;;;;;;;-3.92;74.28;98781.41;4993177;28;20927;-65
2022/11/18 08:59:48;;;;;;;5.50;4.25;;;;;;;-3.93;74.05;98779.72;4983182;28;20037;-65
2022/11/18 09:02:16;;;;;;;6.35;4.70;;;;;;;-4.07;74.58;98770.16;4984642;28;20057;-65
2022/11/18 09:04:42;;;;;;;5.90;4.88;;;;;;;-4.11;76.11;98790.28;4984516;28;20121;-65
2022/11/18 09:07:07;;;;;;;5.35;4.53;;;;;;;-3.81;75.29;98782.50;4990180;28;20313;-64
2022/11/18 09:09:33;;;;;;;5.10;3.80;;;;;;;-3.84;74.73;98790.03;4982890;28;20342;-64
2022/11/18 09:11:58;;;;;;;5.38;4.47;;;;;;;-3.97;74.21;98793.97;4984690;28;20266;-64
2022/11/18 09:14:24;;;;;;;6.22;4.68;;;;;;;-3.82;74.87;98801.03;4984042;28;20050;-64
2022/11/18 09:16:50;;;;;;;5.57;4.63;;;;;;;-3.95;74.65;98799.06;4995371;28;20026;-64
2022/11/18 09:19:16;;;;;;;5.95;4.50;;;;;;;-3.78;74.78;98787.63;4989452;28;20142;-64
2022/11/18 09:21:42;;;;;;;7.55;4.80;;;;;;;-3.77;74.31;98796.09;4994538;28;20072;-64
2022/11/18 09:24:09;;;;;;;5.63;4.57;;;;;;;-3.96;74.04;98793.16;4987489;28;20258;-64
2022/11/18 09:26:35;;;;;;;7.68;4.43;;;;;;;-3.82;74.38;98790.91;4984510;28;20030;-65
2022/11/18 09:29:01;;;;;;;4.72;4.22;;;;;;;-3.62;75.63;98800.59;4984798;28;20089;-65
2022/11/18 09:31:26;;;;;;;6.45;4.30;;;;;;;-3.67;74.50;98795.47;4983959;28;20370;-64
2022/11/18 09:33:52;;;;;;;5.90;4.63;;;;;;;-3.74;73.75;98797.00;4984019;28;20298;-64
2022/11/18 09:36:24;;;;;;;5.55;4.65;;;;;;;-3.88;74.44;98793.31;4983959;28;20030;-64
2022/11/18 09:38:50;;;;;;;6.10;4.68;;;;;;;-3.77;73.99;98799.47;5002355;28;20022;-66
2022/11/18 09:41:53;;;;;;;5.55;4.80;;;;;;;-3.70;74.23;98801.31;4990119;28;20123;-65
2022/11/18 09:44:18;;;;;;;6.85;5.18;;;;;;;-3.83;75.35;98804.41;4984029;28;20110;-65
2022/11/18 09:46:46;;;;;;;4.72;4.10;;;;;;;-3.65;75.46;98799.72;4984110;28;20039;-64
2022/11/18 09:49:35;;;;;;;9.10;5.97;;;;;;;-3.56;74.80;98793.13;4983684;28;20114;-64
2022/11/18 09:52:23;;;;;;;5.38;4.78;;;;;;;-3.54;75.19;98796.56;4983364;28;20070;-64
2022/11/18 09:54:49;;;;;;;4.50;4.10;;;;;;;-3.79;74.86;98791.00;4984117;28;20053;-63
2022/11/18 09:57:19;;;;;;;6.07;4.65;;;;;;;-3.62;74.77;98803.13;4983587;28;20030;-65
2022/11/18 09:59:45;;;;;;;10.73;8.20;;;;;;;-3.60;74.87;98791.38;4983734;28;20031;-64
2022/11/18 10:02:48;;;;;;;6.00;4.90;;;;;;;-3.45;74.58;98793.38;4982666;28;20038;-65
2022/11/18 10:05:20;;;;;;;7.07;6.00;;;;;;;-3.59;74.35;98805.72;4987701;28;20235;-65
2022/11/18 10:08:02;;;;;;;6.63;5.20;;;;;;;-3.74;74.52;98783.50;4995102;28;20217;-65
2022/11/18 10:10:52;;;;;;;4.88;4.32;;;;;;;-3.56;74.89;98803.25;4968227;28;20051;-65
2022/11/18 10:13:26;;;;;;;5.72;4.38;;;;;;;-3.47;75.65;98798.41;4973531;28;20034;-65
2022/11/18 10:16:15;;;;;;;5.95;4.65;;;;;;;-3.68;74.87;98806.38;4987680;28;20045;-64
2022/11/18 10:19:13;;;;;;;6.55;4.78;;;;;;;-3.61;75.45;98804.84;4986641;28;20287;-65
2022/11/18 10:22:18;;;;;;;6.22;4.95;;;;;;;-3.46;76.01;98805.19;4986968;28;20041;-65
2022/11/18 10:24:49;;;;;;;6.60;5.18;;;;;;;-3.64;75.32;98803.94;5003833;28;20380;-66
2022/11/18 10:27:15;;;;;;;6.55;5.18;;;;;;;-3.36;75.48;98811.28;4987407;28;20109;-64
2022/11/18 10:29:43;;;;;;;7.25;5.32;;;;;;;-3.68;75.22;98776.03;4987269;28;20200;-64
2022/11/18 10:32:14;;;;;;;5.65;4.60;;;;;;;-3.68;75.43;98793.75;4987243;28;20027;-65
2022/11/18 10:34:46;;;;;;;10.55;7.57;;;;;;;-3.46;75.77;98807.69;4987194;28;20089;-64
2022/11/18 10:37:31;;;;;;;;;;;;;;;-3.42;76.11;98811.13;4987700;28;20106;-65
2022/11/18 10:39:59;;;;;;;6.38;5.00;;;;;;;-3.64;75.54;98805.63;4987204;28;20098;-63
2022/11/18 10:42:40;;;;;;;8.00;5.10;;;;;;;-3.62;75.75;98803.13;4987034;28;20030;-65
2022/11/18 10:45:19;;;;;;;6.25;5.10;;;;;;;-3.70;75.48;98825.75;4986971;28;20034;-65
2022/11/18 10:47:57;;;;;;;6.68;5.05;;;;;;;-3.73;75.87;98798.72;4986741;28;20225;-65
2022/11/18 10:50:39;;;;;;;6.05;4.90;;;;;;;-3.41;76.58;98825.50;4986574;28;20038;-64
2022/11/18 10:53:05;;;;;;;;;;;;;;;-3.59;76.02;98828.50;4987167;28;20111;-65
2022/11/18 10:55:32;;;;;;;5.38;4.70;;;;;;;-3.76;76.22;98825.59;4986759;28;20021;-65
2022/11/18 10:58:12;;;;;;;6.43;4.85;;;;;;;-3.74;76.66;98803.75;4986906;28;20054;-64
2022/11/18 11:00:41;;;;;;;6.97;4.65;;;;;;;-3.77;76.71;98828.97;4986800;28;20030;-64
2022/11/18 11:03:32;;;;;;;6.38;4.65;;;;;;;-3.58;76.04;98830.22;4986716;28;20323;-65
2022/11/18 11:06:26;;;;;;;6.07;5.28;;;;;;;-3.58;77.13;98825.16;4984109;28;20683;-65
2022/11/18 11:08:55;;;;;;;6.30;5.10;;;;;;;-3.97;77.15;98831.06;4984563;28;20282;-64
2022/11/18 11:11:56;;;;;;;5.78;5.05;;;;;;;-3.88;77.12;98828.72;4986732;28;20030;-64
2022/11/18 11:14:23;;;;;;;6.50;4.55;;;;;;;-3.73;78.48;98818.94;4985942;28;20030;-64
2022/11/18 11:16:58;;;;;;;6.65;5.45;;;;;;;-3.88;77.77;98831.25;4995512;28;20038;-64
2022/11/18 11:19:30;;;;;;;7.25;6.22;;;;;;;-3.82;78.76;98811.13;5000908;28;20041;-64
2022/11/18 11:21:56;;;;;;;7.57;5.43;;;;;;;-3.90;78.72;98843.88;4985215;28;20031;-65
2022/11/18 11:24:25;;;;;;;6.57;5.13;;;;;;;-3.81;78.04;98822.97;5002575;28;20033;-65
2022/11/18 11:27:19;;;;;;;8.40;5.70;;;;;;;-3.67;79.07;98841.00;4988870;28;20030;-65
2022/11/18 11:30:13;;;;;;;5.70;5.13;;;;;;;-3.53;78.19;98836.25;4985865;28;20038;-63
2022/11/18 11:33:03;;;;;;;7.47;5.75;;;;;;;-3.55;78.52;98838.75;4985993;28;20046;-64
2022/11/18 11:35:31;;;;;;;7.07;5.40;;;;;;;-3.51;79.25;98839.63;5000007;28;20026;-64
2022/11/18 11:38:19;;;;;;;7.25;5.82;;;;;;;-3.55;78.93;98842.91;4995070;28;20039;-64
2022/11/18 11:40:59;;;;;;;5.68;5.07;;;;;;;-3.46;78.28;98850.72;4986066;28;20041;-65
2022/11/18 11:43:56;;;;;;;6.38;5.60;;;;;;;-3.40;77.72;98852.53;4985996;28;20123;-66
2022/11/18 11:49:53;;;;;;;7.05;5.72;;;;;;;-3.35;78.04;98858.53;4985419;28;20034;-65
2022/11/18 11:52:47;;;;;;;5.78;5.18;;;;;;;-3.50;77.54;98859.91;4985384;28;20039;-65
2022/11/18 11:55:25;;;;;;;5.97;4.95;;;;;;;-3.61;77.03;98842.81;4977479;28;20099;-64
2022/11/18 11:58:11;;;;;;;6.78;5.50;;;;;;;-3.52;77.60;98858.16;4985851;28;20054;-65
2022/11/18 12:00:43;;;;;;;6.95;5.50;;;;;;;-3.72;77.55;98850.16;4984706;28;20122;-64
2022/11/18 12:03:41;;;;;;;7.70;5.20;;;;;;;-3.48;78.22;98867.53;5004855;28;20041;-64
2022/11/18 12:06:09;;;;;;;5.90;4.70;;;;;;;-3.62;78.30;98851.22;4980634;28;20015;-64
2022/11/18 12:08:37;;;;;;;5.40;4.55;;;;;;;-3.53;77.25;98849.72;4980515;28;20022;-64